sensor_id;sensor_type;location;lat;lon;timestamp;P1;P2;P0
70570;PMS5003;58135;50.948;-1.458;2022-10-10T00:00:40;5;5;
70570;PMS5003;58135;50.948;-1.458;2022-10-10T00:03:05;7;7;
70570;PMS5003;58135;50.948;-1.458;2022-10-10T00:05:31;5;5;
70570;PMS5003;58135;50.948;-1.458;2022-10-10T00:07:56;6;6;
70570;PMS5003;58135;50.948;-1.458;2022-10-10T00:10:22;6;6;
70570;PMS5003;58135;50.948;-1.458;2022-10-10T00:12:48;5;5;
70570;PMS5003;58135;50.948;-1.458;2022-10-10T00:15:13;4;4;
70570;PMS5003;58135;50.948;-1.458;2022-10-10T00:17:39;6;6;
70570;PMS5003;58135;50.948;-1.458;2022-10-10T00:20:05;7;7;
70570;PMS5003;58135;50.948;-1.458;2022-10-10T00:22:30;5;4;
70570;PMS5003;58135;50.948;-1.458;2022-10-10T00:24:55;5;5;
70570;PMS5003;58135;50.948;-1.458;2022-10-10T00:27:21;7;5;
70570;PMS5003;58135;50.948;-1.458;2022-10-10T00:29:47;6;5;
70570;PMS5003;58135;50.948;-1.458;2022-10-10T00:32:12;5;5;
70570;PMS5003;58135;50.948;-1.458;2022-10-10T00:34:38;6;6;
70570;PMS5003;58135;50.948;-1.458;2022-10-10T00:37:03;4;4;
70570;PMS5003;58135;50.948;-1.458;2022-10-10T00:39:29;4;4;
70570;PMS5003;58135;50.948;-1.458;2022-10-10T00:41:54;5;5;
70570;PMS5003;58135;50.948;-1.458;2022-10-10T00:44:20;4;4;
70570;PMS5003;58135;50.948;-1.458;2022-10-10T00:46:45;9;8;
70570;PMS5003;58135;50.948;-1.458;2022-10-10T00:49:12;5;5;
70570;PMS5003;58135;50.948;-1.458;2022-10-10T00:51:36;4;4;
70570;PMS5003;58135;50.948;-1.458;2022-10-10T00:54:03;5;4;
70570;PMS5003;58135;50.948;-1.458;2022-10-10T00:56:28;5;5;
70570;PMS5003;58135;50.948;-1.458;2022-10-10T00:58:54;7;7;
70570;PMS5003;58135;50.948;-1.458;2022-10-10T01:01:19;6;6;
70570;PMS5003;58135;50.948;-1.458;2022-10-10T01:03:44;4;4;
70570;PMS5003;58135;50.948;-1.458;2022-10-10T01:06:10;6;5;
70570;PMS5003;58135;50.948;-1.458;2022-10-10T01:08:35;5;4;
70570;PMS5003;58135;50.948;-1.458;2022-10-10T01:11:04;11;9;
70570;PMS5003;58135;50.948;-1.458;2022-10-10T01:13:27;5;5;
70570;PMS5003;58135;50.948;-1.458;2022-10-10T01:15:53;6;6;
70570;PMS5003;58135;50.948;-1.458;2022-10-10T01:18:20;5;4;
70570;PMS5003;58135;50.948;-1.458;2022-10-10T01:20:49;4;4;
70570;PMS5003;58135;50.948;-1.458;2022-10-10T01:23:14;6;5;
70570;PMS5003;58135;50.948;-1.458;2022-10-10T01:25:37;5;5;
70570;PMS5003;58135;50.948;-1.458;2022-10-10T01:28:00;6;6;
70570;PMS5003;58135;50.948;-1.458;2022-10-10T01:30:25;5;5;
70570;PMS5003;58135;50.948;-1.458;2022-10-10T01:32:52;5;5;
70570;PMS5003;58135;50.948;-1.458;2022-10-10T01:35:21;5;5;
70570;PMS5003;58135;50.948;-1.458;2022-10-10T01:37:45;8;7;
70570;PMS5003;58135;50.948;-1.458;2022-10-10T01:40:09;8;7;
70570;PMS5003;58135;50.948;-1.458;2022-10-10T01:42:34;7;6;
70570;PMS5003;58135;50.948;-1.458;2022-10-10T01:44:58;8;7;
70570;PMS5003;58135;50.948;-1.458;2022-10-10T01:47:24;7;7;
70570;PMS5003;58135;50.948;-1.458;2022-10-10T01:49:52;8;8;
70570;PMS5003;58135;50.948;-1.458;2022-10-10T01:52:18;8;7;
70570;PMS5003;58135;50.948;-1.458;2022-10-10T01:54:44;10;10;
70570;PMS5003;58135;50.948;-1.458;2022-10-10T01:57:12;8;8;
70570;PMS5003;58135;50.948;-1.458;2022-10-10T01:59:34;11;10;
70570;PMS5003;58135;50.948;-1.458;2022-10-10T02:01:59;9;9;
70570;PMS5003;58135;50.948;-1.458;2022-10-10T02:04:25;8;8;
70570;PMS5003;58135;50.948;-1.458;2022-10-10T02:06:49;7;7;
70570;PMS5003;58135;50.948;-1.458;2022-10-10T02:09:15;8;7;
70570;PMS5003;58135;50.948;-1.458;2022-10-10T02:11:40;11;10;
70570;PMS5003;58135;50.948;-1.458;2022-10-10T02:14:07;9;9;
70570;PMS5003;58135;50.948;-1.458;2022-10-10T02:16:32;6;6;
70570;PMS5003;58135;50.948;-1.458;2022-10-10T02:18:56;9;8;
70570;PMS5003;58135;50.948;-1.458;2022-10-10T02:21:22;8;7;
70570;PMS5003;58135;50.948;-1.458;2022-10-10T02:23:49;9;7;
70570;PMS5003;58135;50.948;-1.458;2022-10-10T02:26:15;6;6;
70570;PMS5003;58135;50.948;-1.458;2022-10-10T02:28:40;7;7;
70570;PMS5003;58135;50.948;-1.458;2022-10-10T02:31:05;9;8;
70570;PMS5003;58135;50.948;-1.458;2022-10-10T02:33:30;6;6;
70570;PMS5003;58135;50.948;-1.458;2022-10-10T02:35:55;7;6;
70570;PMS5003;58135;50.948;-1.458;2022-10-10T02:38:21;7;6;
70570;PMS5003;58135;50.948;-1.458;2022-10-10T02:40:47;9;9;
70570;PMS5003;58135;50.948;-1.458;2022-10-10T02:43:12;8;8;
70570;PMS5003;58135;50.948;-1.458;2022-10-10T02:45:37;9;9;
70570;PMS5003;58135;50.948;-1.458;2022-10-10T02:48:03;6;5;
70570;PMS5003;58135;50.948;-1.458;2022-10-10T02:50:29;6;6;
70570;PMS5003;58135;50.948;-1.458;2022-10-10T02:52:54;8;8;
70570;PMS5003;58135;50.948;-1.458;2022-10-10T02:55:20;8;7;
70570;PMS5003;58135;50.948;-1.458;2022-10-10T02:57:45;6;6;
70570;PMS5003;58135;50.948;-1.458;2022-10-10T03:00:11;7;5;
70570;PMS5003;58135;50.948;-1.458;2022-10-10T03:02:36;6;5;
70570;PMS5003;58135;50.948;-1.458;2022-10-10T03:05:01;6;6;
70570;PMS5003;58135;50.948;-1.458;2022-10-10T03:07:27;6;6;
70570;PMS5003;58135;50.948;-1.458;2022-10-10T03:09:52;7;6;
70570;PMS5003;58135;50.948;-1.458;2022-10-10T03:12:18;6;6;
70570;PMS5003;58135;50.948;-1.458;2022-10-10T03:14:44;6;6;
70570;PMS5003;58135;50.948;-1.458;2022-10-10T03:17:09;9;7;
70570;PMS5003;58135;50.948;-1.458;2022-10-10T03:19:35;6;6;
70570;PMS5003;58135;50.948;-1.458;2022-10-10T03:22:00;10;8;
70570;PMS5003;58135;50.948;-1.458;2022-10-10T03:24:26;7;6;
70570;PMS5003;58135;50.948;-1.458;2022-10-10T03:26:51;7;7;
70570;PMS5003;58135;50.948;-1.458;2022-10-10T03:29:17;7;7;
70570;PMS5003;58135;50.948;-1.458;2022-10-10T03:31:42;9;9;
70570;PMS5003;58135;50.948;-1.458;2022-10-10T03:34:08;9;8;
70570;PMS5003;58135;50.948;-1.458;2022-10-10T03:36:34;6;6;
70570;PMS5003;58135;50.948;-1.458;2022-10-10T03:38:59;8;7;
70570;PMS5003;58135;50.948;-1.458;2022-10-10T03:41:25;7;7;
70570;PMS5003;58135;50.948;-1.458;2022-10-10T03:43:50;8;8;
70570;PMS5003;58135;50.948;-1.458;2022-10-10T03:46:16;11;10;
70570;PMS5003;58135;50.948;-1.458;2022-10-10T03:48:42;9;8;
70570;PMS5003;58135;50.948;-1.458;2022-10-10T03:51:07;9;8;
70570;PMS5003;58135;50.948;-1.458;2022-10-10T03:53:33;7;7;
70570;PMS5003;58135;50.948;-1.458;2022-10-10T03:55:58;7;7;
70570;PMS5003;58135;50.948;-1.458;2022-10-10T03:58:24;8;7;
70570;PMS5003;58135;50.948;-1.458;2022-10-10T04:00:52;9;8;
70570;PMS5003;58135;50.948;-1.458;2022-10-10T04:03:15;6;6;
70570;PMS5003;58135;50.948;-1.458;2022-10-10T04:05:40;8;7;
70570;PMS5003;58135;50.948;-1.458;2022-10-10T04:08:06;8;8;
70570;PMS5003;58135;50.948;-1.458;2022-10-10T04:10:32;9;7;
70570;PMS5003;58135;50.948;-1.458;2022-10-10T04:12:57;8;8;
70570;PMS5003;58135;50.948;-1.458;2022-10-10T04:15:23;8;8;
70570;PMS5003;58135;50.948;-1.458;2022-10-10T04:17:48;6;6;
70570;PMS5003;58135;50.948;-1.458;2022-10-10T04:20:14;9;9;
70570;PMS5003;58135;50.948;-1.458;2022-10-10T04:22:39;10;8;
70570;PMS5003;58135;50.948;-1.458;2022-10-10T04:25:05;6;6;
70570;PMS5003;58135;50.948;-1.458;2022-10-10T04:27:30;5;5;
70570;PMS5003;58135;50.948;-1.458;2022-10-10T04:29:56;8;8;
70570;PMS5003;58135;50.948;-1.458;2022-10-10T04:32:22;8;8;
70570;PMS5003;58135;50.948;-1.458;2022-10-10T04:34:47;8;7;
70570;PMS5003;58135;50.948;-1.458;2022-10-10T04:37:13;7;7;
70570;PMS5003;58135;50.948;-1.458;2022-10-10T04:39:38;6;6;
70570;PMS5003;58135;50.948;-1.458;2022-10-10T04:42:04;10;8;
70570;PMS5003;58135;50.948;-1.458;2022-10-10T04:44:29;10;10;
70570;PMS5003;58135;50.948;-1.458;2022-10-10T04:46:55;11;10;
70570;PMS5003;58135;50.948;-1.458;2022-10-10T04:49:21;14;10;
70570;PMS5003;58135;50.948;-1.458;2022-10-10T04:51:46;8;8;
70570;PMS5003;58135;50.948;-1.458;2022-10-10T04:54:12;13;12;
70570;PMS5003;58135;50.948;-1.458;2022-10-10T04:56:37;9;9;
70570;PMS5003;58135;50.948;-1.458;2022-10-10T04:59:03;12;10;
70570;PMS5003;58135;50.948;-1.458;2022-10-10T05:01:28;14;13;
70570;PMS5003;58135;50.948;-1.458;2022-10-10T05:03:54;11;11;
70570;PMS5003;58135;50.948;-1.458;2022-10-10T05:06:20;10;10;
70570;PMS5003;58135;50.948;-1.458;2022-10-10T05:08:45;14;11;
70570;PMS5003;58135;50.948;-1.458;2022-10-10T05:11:10;13;12;
70570;PMS5003;58135;50.948;-1.458;2022-10-10T05:13:36;10;10;
70570;PMS5003;58135;50.948;-1.458;2022-10-10T05:16:02;12;12;
70570;PMS5003;58135;50.948;-1.458;2022-10-10T05:18:27;11;10;
70570;PMS5003;58135;50.948;-1.458;2022-10-10T05:20:53;15;12;
70570;PMS5003;58135;50.948;-1.458;2022-10-10T05:23:18;12;11;
70570;PMS5003;58135;50.948;-1.458;2022-10-10T05:25:46;12;12;
70570;PMS5003;58135;50.948;-1.458;2022-10-10T05:28:09;9;9;
70570;PMS5003;58135;50.948;-1.458;2022-10-10T05:30:35;10;10;
70570;PMS5003;58135;50.948;-1.458;2022-10-10T05:33:01;9;8;
70570;PMS5003;58135;50.948;-1.458;2022-10-10T05:35:26;9;8;
70570;PMS5003;58135;50.948;-1.458;2022-10-10T05:37:52;11;10;
70570;PMS5003;58135;50.948;-1.458;2022-10-10T05:40:17;13;10;
70570;PMS5003;58135;50.948;-1.458;2022-10-10T05:42:43;14;12;
70570;PMS5003;58135;50.948;-1.458;2022-10-10T05:45:08;10;10;
70570;PMS5003;58135;50.948;-1.458;2022-10-10T05:47:33;13;12;
70570;PMS5003;58135;50.948;-1.458;2022-10-10T05:49:59;12;11;
70570;PMS5003;58135;50.948;-1.458;2022-10-10T05:52:25;10;10;
70570;PMS5003;58135;50.948;-1.458;2022-10-10T05:54:50;12;11;
70570;PMS5003;58135;50.948;-1.458;2022-10-10T05:57:16;11;11;
70570;PMS5003;58135;50.948;-1.458;2022-10-10T05:59:41;13;13;
70570;PMS5003;58135;50.948;-1.458;2022-10-10T06:02:07;8;8;
70570;PMS5003;58135;50.948;-1.458;2022-10-10T06:04:32;8;7;
70570;PMS5003;58135;50.948;-1.458;2022-10-10T06:06:58;7;7;
70570;PMS5003;58135;50.948;-1.458;2022-10-10T06:09:23;7;7;
70570;PMS5003;58135;50.948;-1.458;2022-10-10T06:11:49;10;9;
70570;PMS5003;58135;50.948;-1.458;2022-10-10T06:14:14;9;9;
70570;PMS5003;58135;50.948;-1.458;2022-10-10T06:16:40;8;8;
70570;PMS5003;58135;50.948;-1.458;2022-10-10T06:19:05;10;8;
70570;PMS5003;58135;50.948;-1.458;2022-10-10T06:21:31;9;9;
70570;PMS5003;58135;50.948;-1.458;2022-10-10T06:23:57;8;8;
70570;PMS5003;58135;50.948;-1.458;2022-10-10T06:26:22;9;9;
70570;PMS5003;58135;50.948;-1.458;2022-10-10T06:28:47;9;9;
70570;PMS5003;58135;50.948;-1.458;2022-10-10T06:31:13;8;8;
70570;PMS5003;58135;50.948;-1.458;2022-10-10T06:33:39;8;8;
70570;PMS5003;58135;50.948;-1.458;2022-10-10T06:36:04;10;10;
70570;PMS5003;58135;50.948;-1.458;2022-10-10T06:38:29;10;10;
70570;PMS5003;58135;50.948;-1.458;2022-10-10T06:40:54;13;12;
70570;PMS5003;58135;50.948;-1.458;2022-10-10T06:43:20;11;10;
70570;PMS5003;58135;50.948;-1.458;2022-10-10T06:45:46;10;10;
70570;PMS5003;58135;50.948;-1.458;2022-10-10T06:48:12;9;9;
70570;PMS5003;58135;50.948;-1.458;2022-10-10T06:50:37;11;10;
70570;PMS5003;58135;50.948;-1.458;2022-10-10T06:53:02;8;7;
70570;PMS5003;58135;50.948;-1.458;2022-10-10T06:55:28;9;8;
70570;PMS5003;58135;50.948;-1.458;2022-10-10T06:57:53;7;6;
70570;PMS5003;58135;50.948;-1.458;2022-10-10T07:00:19;4;3;
70570;PMS5003;58135;50.948;-1.458;2022-10-10T07:02:44;3;3;
70570;PMS5003;58135;50.948;-1.458;2022-10-10T07:05:10;5;5;
70570;PMS5003;58135;50.948;-1.458;2022-10-10T07:07:35;4;4;
70570;PMS5003;58135;50.948;-1.458;2022-10-10T07:10:01;3;3;
70570;PMS5003;58135;50.948;-1.458;2022-10-10T07:12:26;4;3;
70570;PMS5003;58135;50.948;-1.458;2022-10-10T07:14:52;2;1;
70570;PMS5003;58135;50.948;-1.458;2022-10-10T07:17:18;3;2;
70570;PMS5003;58135;50.948;-1.458;2022-10-10T07:19:43;2;2;
70570;PMS5003;58135;50.948;-1.458;2022-10-10T07:22:08;5;5;
70570;PMS5003;58135;50.948;-1.458;2022-10-10T07:24:34;4;3;
70570;PMS5003;58135;50.948;-1.458;2022-10-10T07:27:00;4;4;
70570;PMS5003;58135;50.948;-1.458;2022-10-10T07:29:25;5;3;
70570;PMS5003;58135;50.948;-1.458;2022-10-10T07:31:51;5;3;
70570;PMS5003;58135;50.948;-1.458;2022-10-10T07:34:16;2;2;
70570;PMS5003;58135;50.948;-1.458;2022-10-10T07:36:42;5;4;
70570;PMS5003;58135;50.948;-1.458;2022-10-10T07:39:08;5;4;
70570;PMS5003;58135;50.948;-1.458;2022-10-10T07:41:33;4;3;
70570;PMS5003;58135;50.948;-1.458;2022-10-10T07:43:59;3;2;
70570;PMS5003;58135;50.948;-1.458;2022-10-10T07:46:24;4;3;
70570;PMS5003;58135;50.948;-1.458;2022-10-10T07:48:50;4;2;
70570;PMS5003;58135;50.948;-1.458;2022-10-10T07:51:15;3;3;
70570;PMS5003;58135;50.948;-1.458;2022-10-10T07:53:41;6;5;
70570;PMS5003;58135;50.948;-1.458;2022-10-10T07:56:07;5;5;
70570;PMS5003;58135;50.948;-1.458;2022-10-10T07:58:32;2;2;
70570;PMS5003;58135;50.948;-1.458;2022-10-10T08:01:01;4;3;
70570;PMS5003;58135;50.948;-1.458;2022-10-10T08:03:23;4;3;
70570;PMS5003;58135;50.948;-1.458;2022-10-10T08:05:48;5;4;
70570;PMS5003;58135;50.948;-1.458;2022-10-10T08:08:14;7;4;
70570;PMS5003;58135;50.948;-1.458;2022-10-10T08:10:41;2;2;
70570;PMS5003;58135;50.948;-1.458;2022-10-10T08:13:05;5;3;
70570;PMS5003;58135;50.948;-1.458;2022-10-10T08:15:31;1;1;
70570;PMS5003;58135;50.948;-1.458;2022-10-10T08:17:56;4;2;
70570;PMS5003;58135;50.948;-1.458;2022-10-10T08:20:22;5;4;
70570;PMS5003;58135;50.948;-1.458;2022-10-10T08:22:48;3;2;
70570;PMS5003;58135;50.948;-1.458;2022-10-10T08:25:13;2;2;
70570;PMS5003;58135;50.948;-1.458;2022-10-10T08:27:39;4;2;
70570;PMS5003;58135;50.948;-1.458;2022-10-10T08:30:04;3;3;
70570;PMS5003;58135;50.948;-1.458;2022-10-10T08:32:30;2;1;
70570;PMS5003;58135;50.948;-1.458;2022-10-10T08:34:55;2;1;
70570;PMS5003;58135;50.948;-1.458;2022-10-10T08:37:21;4;2;
70570;PMS5003;58135;50.948;-1.458;2022-10-10T08:39:46;2;2;
70570;PMS5003;58135;50.948;-1.458;2022-10-10T08:42:13;2;2;
70570;PMS5003;58135;50.948;-1.458;2022-10-10T08:44:38;6;4;
70570;PMS5003;58135;50.948;-1.458;2022-10-10T08:47:04;3;2;
70570;PMS5003;58135;50.948;-1.458;2022-10-10T08:49:30;8;5;
70570;PMS5003;58135;50.948;-1.458;2022-10-10T08:51:56;3;3;
70570;PMS5003;58135;50.948;-1.458;2022-10-10T08:54:20;1;1;
70570;PMS5003;58135;50.948;-1.458;2022-10-10T08:56:45;2;2;
70570;PMS5003;58135;50.948;-1.458;2022-10-10T08:59:13;2;2;
70570;PMS5003;58135;50.948;-1.458;2022-10-10T09:01:37;5;5;
70570;PMS5003;58135;50.948;-1.458;2022-10-10T09:04:02;3;3;
70570;PMS5003;58135;50.948;-1.458;2022-10-10T09:06:31;7;5;
70570;PMS5003;58135;50.948;-1.458;2022-10-10T09:08:55;5;3;
70570;PMS5003;58135;50.948;-1.458;2022-10-10T09:11:21;5;2;
70570;PMS5003;58135;50.948;-1.458;2022-10-10T09:13:45;6;3;
70570;PMS5003;58135;50.948;-1.458;2022-10-10T09:16:13;4;3;
70570;PMS5003;58135;50.948;-1.458;2022-10-10T09:18:39;3;3;
70570;PMS5003;58135;50.948;-1.458;2022-10-10T09:21:01;5;4;
70570;PMS5003;58135;50.948;-1.458;2022-10-10T09:23:27;4;3;
70570;PMS5003;58135;50.948;-1.458;2022-10-10T09:25:52;2;2;
70570;PMS5003;58135;50.948;-1.458;2022-10-10T09:28:19;2;2;
70570;PMS5003;58135;50.948;-1.458;2022-10-10T09:30:44;7;3;
70570;PMS5003;58135;50.948;-1.458;2022-10-10T09:33:12;2;2;
70570;PMS5003;58135;50.948;-1.458;2022-10-10T09:35:34;3;3;
70570;PMS5003;58135;50.948;-1.458;2022-10-10T09:38:00;3;2;
70570;PMS5003;58135;50.948;-1.458;2022-10-10T09:40:26;2;1;
70570;PMS5003;58135;50.948;-1.458;2022-10-10T09:42:50;6;6;
70570;PMS5003;58135;50.948;-1.458;2022-10-10T09:45:16;2;2;
70570;PMS5003;58135;50.948;-1.458;2022-10-10T09:47:41;5;2;
70570;PMS5003;58135;50.948;-1.458;2022-10-10T09:50:10;5;4;
70570;PMS5003;58135;50.948;-1.458;2022-10-10T09:52:32;2;1;
70570;PMS5003;58135;50.948;-1.458;2022-10-10T09:54:59;2;1;
70570;PMS5003;58135;50.948;-1.458;2022-10-10T09:57:25;4;4;
70570;PMS5003;58135;50.948;-1.458;2022-10-10T09:59:49;3;3;
70570;PMS5003;58135;50.948;-1.458;2022-10-10T10:02:16;5;4;
70570;PMS5003;58135;50.948;-1.458;2022-10-10T10:04:40;4;3;
70570;PMS5003;58135;50.948;-1.458;2022-10-10T10:07:14;5;4;
70570;PMS5003;58135;50.948;-1.458;2022-10-10T10:09:31;3;3;
70570;PMS5003;58135;50.948;-1.458;2022-10-10T10:11:57;4;2;
70570;PMS5003;58135;50.948;-1.458;2022-10-10T10:14:23;2;2;
70570;PMS5003;58135;50.948;-1.458;2022-10-10T10:16:48;4;4;
70570;PMS5003;58135;50.948;-1.458;2022-10-10T10:24:17;2;2;
70570;PMS5003;58135;50.948;-1.458;2022-10-10T10:26:41;3;3;
70570;PMS5003;58135;50.948;-1.458;2022-10-10T10:28:56;2;2;
70570;PMS5003;58135;50.948;-1.458;2022-10-10T10:31:25;3;2;
70570;PMS5003;58135;50.948;-1.458;2022-10-10T10:33:48;3;2;
70570;PMS5003;58135;50.948;-1.458;2022-10-10T10:36:16;3;2;
70570;PMS5003;58135;50.948;-1.458;2022-10-10T10:38:39;2;2;
70570;PMS5003;58135;50.948;-1.458;2022-10-10T10:41:04;2;1;
70570;PMS5003;58135;50.948;-1.458;2022-10-10T10:43:32;3;2;
70570;PMS5003;58135;50.948;-1.458;2022-10-10T10:45:58;3;2;
70570;PMS5003;58135;50.948;-1.458;2022-10-10T10:48:22;1;1;
70570;PMS5003;58135;50.948;-1.458;2022-10-10T10:50:47;3;2;
70570;PMS5003;58135;50.948;-1.458;2022-10-10T10:53:14;3;2;
70570;PMS5003;58135;50.948;-1.458;2022-10-10T10:55:38;2;2;
70570;PMS5003;58135;50.948;-1.458;2022-10-10T10:58:10;3;3;
70570;PMS5003;58135;50.948;-1.458;2022-10-10T11:00:28;3;2;
70570;PMS5003;58135;50.948;-1.458;2022-10-10T11:02:57;1;1;
70570;PMS5003;58135;50.948;-1.458;2022-10-10T11:05:28;1;1;
70570;PMS5003;58135;50.948;-1.458;2022-10-10T11:07:46;2;1;
70570;PMS5003;58135;50.948;-1.458;2022-10-10T11:10:10;2;1;
70570;PMS5003;58135;50.948;-1.458;2022-10-10T11:12:38;5;2;
70570;PMS5003;58135;50.948;-1.458;2022-10-10T11:15:02;5;2;
70570;PMS5003;58135;50.948;-1.458;2022-10-10T11:17:27;2;2;
70570;PMS5003;58135;50.948;-1.458;2022-10-10T11:19:53;3;1;
70570;PMS5003;58135;50.948;-1.458;2022-10-10T11:22:18;2;2;
70570;PMS5003;58135;50.948;-1.458;2022-10-10T11:24:44;0;0;
70570;PMS5003;58135;50.948;-1.458;2022-10-10T11:27:10;2;1;
70570;PMS5003;58135;50.948;-1.458;2022-10-10T11:29:44;1;1;
70570;PMS5003;58135;50.948;-1.458;2022-10-10T11:32:01;1;1;
70570;PMS5003;58135;50.948;-1.458;2022-10-10T11:34:25;2;1;
70570;PMS5003;58135;50.948;-1.458;2022-10-10T11:36:50;2;1;
70570;PMS5003;58135;50.948;-1.458;2022-10-10T11:39:17;0;0;
70570;PMS5003;58135;50.948;-1.458;2022-10-10T11:41:43;3;1;
70570;PMS5003;58135;50.948;-1.458;2022-10-10T11:44:07;2;2;
70570;PMS5003;58135;50.948;-1.458;2022-10-10T11:46:34;2;0;
70570;PMS5003;58135;50.948;-1.458;2022-10-10T11:49:00;1;1;
70570;PMS5003;58135;50.948;-1.458;2022-10-10T11:51:27;5;2;
70570;PMS5003;58135;50.948;-1.458;2022-10-10T11:53:49;4;1;
70570;PMS5003;58135;50.948;-1.458;2022-10-10T11:56:16;3;1;
70570;PMS5003;58135;50.948;-1.458;2022-10-10T11:58:41;2;2;
70570;PMS5003;58135;50.948;-1.458;2022-10-10T12:01:10;1;1;
70570;PMS5003;58135;50.948;-1.458;2022-10-10T12:03:31;3;2;
70570;PMS5003;58135;50.948;-1.458;2022-10-10T12:06:07;1;1;
70570;PMS5003;58135;50.948;-1.458;2022-10-10T12:08:22;5;2;
70570;PMS5003;58135;50.948;-1.458;2022-10-10T12:10:48;1;0;
70570;PMS5003;58135;50.948;-1.458;2022-10-10T12:13:20;4;3;
70570;PMS5003;58135;50.948;-1.458;2022-10-10T12:15:38;3;2;
70570;PMS5003;58135;50.948;-1.458;2022-10-10T12:18:03;3;2;
70570;PMS5003;58135;50.948;-1.458;2022-10-10T12:20:30;2;2;
70570;PMS5003;58135;50.948;-1.458;2022-10-10T12:25:22;2;1;
70570;PMS5003;58135;50.948;-1.458;2022-10-10T12:27:46;1;1;
70570;PMS5003;58135;50.948;-1.458;2022-10-10T12:30:16;3;2;
70570;PMS5003;58135;50.948;-1.458;2022-10-10T12:32:39;3;2;
70570;PMS5003;58135;50.948;-1.458;2022-10-10T12:35:02;1;1;
70570;PMS5003;58135;50.948;-1.458;2022-10-10T12:37:28;2;2;
70570;PMS5003;58135;50.948;-1.458;2022-10-10T12:39:59;3;2;
70570;PMS5003;58135;50.948;-1.458;2022-10-10T12:44:44;2;2;
70570;PMS5003;58135;50.948;-1.458;2022-10-10T12:47:19;3;1;
70570;PMS5003;58135;50.948;-1.458;2022-10-10T12:49:35;4;3;
70570;PMS5003;58135;50.948;-1.458;2022-10-10T12:52:09;3;2;
70570;PMS5003;58135;50.948;-1.458;2022-10-10T12:54:27;2;1;
70570;PMS5003;58135;50.948;-1.458;2022-10-10T12:56:52;4;2;
70570;PMS5003;58135;50.948;-1.458;2022-10-10T12:59:18;2;1;
70570;PMS5003;58135;50.948;-1.458;2022-10-10T13:01:43;1;0;
70570;PMS5003;58135;50.948;-1.458;2022-10-10T13:04:08;3;3;
70570;PMS5003;58135;50.948;-1.458;2022-10-10T13:06:34;2;1;
70570;PMS5003;58135;50.948;-1.458;2022-10-10T13:08:59;4;4;
70570;PMS5003;58135;50.948;-1.458;2022-10-10T13:11:24;2;2;
70570;PMS5003;58135;50.948;-1.458;2022-10-10T13:13:50;1;1;
70570;PMS5003;58135;50.948;-1.458;2022-10-10T13:16:16;1;1;
70570;PMS5003;58135;50.948;-1.458;2022-10-10T13:18:41;1;0;
70570;PMS5003;58135;50.948;-1.458;2022-10-10T13:21:06;2;2;
70570;PMS5003;58135;50.948;-1.458;2022-10-10T13:23:32;2;2;
70570;PMS5003;58135;50.948;-1.458;2022-10-10T13:25:57;2;1;
70570;PMS5003;58135;50.948;-1.458;2022-10-10T13:28:23;1;1;
70570;PMS5003;58135;50.948;-1.458;2022-10-10T13:30:48;0;0;
70570;PMS5003;58135;50.948;-1.458;2022-10-10T13:33:15;1;1;
70570;PMS5003;58135;50.948;-1.458;2022-10-10T13:35:39;1;0;
70570;PMS5003;58135;50.948;-1.458;2022-10-10T13:38:05;1;0;
70570;PMS5003;58135;50.948;-1.458;2022-10-10T13:40:30;2;1;
70570;PMS5003;58135;50.948;-1.458;2022-10-10T13:42:56;2;1;
70570;PMS5003;58135;50.948;-1.458;2022-10-10T13:45:28;1;1;
70570;PMS5003;58135;50.948;-1.458;2022-10-10T13:47:49;1;1;
70570;PMS5003;58135;50.948;-1.458;2022-10-10T13:50:17;1;0;
70570;PMS5003;58135;50.948;-1.458;2022-10-10T13:52:38;2;1;
70570;PMS5003;58135;50.948;-1.458;2022-10-10T13:55:12;2;1;
70570;PMS5003;58135;50.948;-1.458;2022-10-10T13:57:29;0;0;
70570;PMS5003;58135;50.948;-1.458;2022-10-10T13:59:57;1;1;
70570;PMS5003;58135;50.948;-1.458;2022-10-10T14:02:20;2;1;
70570;PMS5003;58135;50.948;-1.458;2022-10-10T14:04:46;0;0;
70570;PMS5003;58135;50.948;-1.458;2022-10-10T14:07:12;2;1;
70570;PMS5003;58135;50.948;-1.458;2022-10-10T14:09:37;1;0;
70570;PMS5003;58135;50.948;-1.458;2022-10-10T14:12:03;0;0;
70570;PMS5003;58135;50.948;-1.458;2022-10-10T14:14:31;2;1;
70570;PMS5003;58135;50.948;-1.458;2022-10-10T14:16:57;2;1;
70570;PMS5003;58135;50.948;-1.458;2022-10-10T14:19:23;2;1;
70570;PMS5003;58135;50.948;-1.458;2022-10-10T14:21:44;1;0;
70570;PMS5003;58135;50.948;-1.458;2022-10-10T14:24:10;2;2;
70570;PMS5003;58135;50.948;-1.458;2022-10-10T14:26:35;1;1;
70570;PMS5003;58135;50.948;-1.458;2022-10-10T14:29:00;2;2;
70570;PMS5003;58135;50.948;-1.458;2022-10-10T14:31:26;1;1;
70570;PMS5003;58135;50.948;-1.458;2022-10-10T14:33:51;0;0;
70570;PMS5003;58135;50.948;-1.458;2022-10-10T14:36:17;1;1;
70570;PMS5003;58135;50.948;-1.458;2022-10-10T14:38:42;1;0;
70570;PMS5003;58135;50.948;-1.458;2022-10-10T14:41:09;1;1;
70570;PMS5003;58135;50.948;-1.458;2022-10-10T14:43:33;2;2;
70570;PMS5003;58135;50.948;-1.458;2022-10-10T14:45:59;3;1;
70570;PMS5003;58135;50.948;-1.458;2022-10-10T14:48:24;0;0;
70570;PMS5003;58135;50.948;-1.458;2022-10-10T14:50:50;2;1;
70570;PMS5003;58135;50.948;-1.458;2022-10-10T14:53:15;0;0;
70570;PMS5003;58135;50.948;-1.458;2022-10-10T14:55:41;3;2;
70570;PMS5003;58135;50.948;-1.458;2022-10-10T14:58:07;4;1;
70570;PMS5003;58135;50.948;-1.458;2022-10-10T15:00:32;1;1;
70570;PMS5003;58135;50.948;-1.458;2022-10-10T15:02:57;1;0;
70570;PMS5003;58135;50.948;-1.458;2022-10-10T15:05:23;2;2;
70570;PMS5003;58135;50.948;-1.458;2022-10-10T15:07:49;3;2;
70570;PMS5003;58135;50.948;-1.458;2022-10-10T15:10:14;1;1;
70570;PMS5003;58135;50.948;-1.458;2022-10-10T15:12:40;2;1;
70570;PMS5003;58135;50.948;-1.458;2022-10-10T15:15:06;2;1;
70570;PMS5003;58135;50.948;-1.458;2022-10-10T15:17:31;4;4;
70570;PMS5003;58135;50.948;-1.458;2022-10-10T15:19:56;2;0;
70570;PMS5003;58135;50.948;-1.458;2022-10-10T15:22:22;1;1;
70570;PMS5003;58135;50.948;-1.458;2022-10-10T15:24:47;2;1;
70570;PMS5003;58135;50.948;-1.458;2022-10-10T15:27:13;3;1;
70570;PMS5003;58135;50.948;-1.458;2022-10-10T15:29:38;2;2;
70570;PMS5003;58135;50.948;-1.458;2022-10-10T15:32:04;2;2;
70570;PMS5003;58135;50.948;-1.458;2022-10-10T15:34:29;0;0;
70570;PMS5003;58135;50.948;-1.458;2022-10-10T15:36:55;2;2;
70570;PMS5003;58135;50.948;-1.458;2022-10-10T15:39:20;1;1;
70570;PMS5003;58135;50.948;-1.458;2022-10-10T15:41:46;1;1;
70570;PMS5003;58135;50.948;-1.458;2022-10-10T15:44:12;1;1;
70570;PMS5003;58135;50.948;-1.458;2022-10-10T15:46:37;1;1;
70570;PMS5003;58135;50.948;-1.458;2022-10-10T15:49:02;2;1;
70570;PMS5003;58135;50.948;-1.458;2022-10-10T15:51:28;1;0;
70570;PMS5003;58135;50.948;-1.458;2022-10-10T15:53:54;2;1;
70570;PMS5003;58135;50.948;-1.458;2022-10-10T15:56:19;2;1;
70570;PMS5003;58135;50.948;-1.458;2022-10-10T15:58:44;2;1;
70570;PMS5003;58135;50.948;-1.458;2022-10-10T16:01:11;0;0;
70570;PMS5003;58135;50.948;-1.458;2022-10-10T16:03:35;3;1;
70570;PMS5003;58135;50.948;-1.458;2022-10-10T16:06:01;4;2;
70570;PMS5003;58135;50.948;-1.458;2022-10-10T16:08:26;2;2;
70570;PMS5003;58135;50.948;-1.458;2022-10-10T16:10:52;1;1;
70570;PMS5003;58135;50.948;-1.458;2022-10-10T16:13:17;1;1;
70570;PMS5003;58135;50.948;-1.458;2022-10-10T16:15:43;2;1;
70570;PMS5003;58135;50.948;-1.458;2022-10-10T16:18:09;1;1;
70570;PMS5003;58135;50.948;-1.458;2022-10-10T16:20:36;2;1;
70570;PMS5003;58135;50.948;-1.458;2022-10-10T16:23:00;3;2;
70570;PMS5003;58135;50.948;-1.458;2022-10-10T16:25:25;1;1;
70570;PMS5003;58135;50.948;-1.458;2022-10-10T16:27:51;2;2;